Time;durP1;ratioP1;P1;durP2;ratioP2;P2;SDS_P1;SDS_P2;PMS_P1;PMS_P2;Temp;Humidity;BMP_temperature;BMP_pressure;BME280_temperature;BME280_humidity;BME280_pressure;Samples;Min_cycle;Max_cycle;Signal;HPM_P1;HPM_P2
2024/01/07 00:01:58;;;;;;;249.17;10.80;;;;;;;20.98;49.28;99191.69;7289581;19;130714;-36
2024/01/07 00:04:23;;;;;;;196.25;8.43;;;;;;;20.99;49.46;99187.31;7292019;19;129285;-38
2024/01/07 00:06:48;;;;;;;163.73;7.45;;;;;;;21.00;49.10;99194.16;7289511;19;129132;-39
2024/01/07 00:09:14;;;;;;;202.83;9.07;;;;;;;21.00;48.81;99197.63;7291885;19;129866;-39
2024/01/07 00:11:40;;;;;;;255.30;10.77;;;;;;;21.00;49.12;99195.00;7290100;19;130778;-39
2024/01/07 00:14:06;;;;;;;143.60;6.70;;;;;;;21.01;49.75;99193.19;7289074;19;129686;-38
2024/01/07 00:16:31;;;;;;;189.27;8.48;;;;;;;20.98;49.09;99196.94;7288600;19;129764;-39
2024/01/07 00:18:56;;;;;;;202.70;8.65;;;;;;;20.97;48.88;99199.66;7290636;19;129181;-38
2024/01/07 00:21:22;;;;;;;252.87;11.10;;;;;;;20.94;48.84;99195.53;7290041;19;131789;-36
2024/01/07 00:23:47;;;;;;;195.07;8.50;;;;;;;21.01;49.18;99201.03;7289699;19;129189;-38
2024/01/07 00:26:13;;;;;;;115.00;5.78;;;;;;;21.02;49.05;99198.28;7288585;19;129390;-37
2024/01/07 00:28:38;;;;;;;244.80;10.35;;;;;;;21.02;48.93;99200.06;7296138;19;130074;-38
2024/01/07 00:31:03;;;;;;;203.07;8.80;;;;;;;20.99;49.36;99203.78;7299606;19;131734;-38
2024/01/07 00:33:31;;;;;;;170.97;7.67;;;;;;;20.98;49.05;99210.00;7298305;19;129627;-38
2024/01/07 00:35:56;;;;;;;178.60;8.18;;;;;;;20.97;48.80;99210.09;7295352;19;129706;-40
2024/01/07 00:38:21;;;;;;;294.42;12.50;;;;;;;20.99;49.44;99214.25;7296125;19;129023;-38
2024/01/07 00:40:47;;;;;;;213.13;9.10;;;;;;;20.98;49.04;99211.78;7295105;19;130651;-36
2024/01/07 00:43:12;;;;;;;172.97;7.43;;;;;;;20.98;49.37;99206.56;7293677;19;130863;-36
2024/01/07 00:45:37;;;;;;;168.70;7.50;;;;;;;20.98;49.43;99212.59;7296133;19;129709;-39
2024/01/07 00:48:03;;;;;;;266.35;11.05;;;;;;;20.98;49.46;99220.44;7295363;19;129866;-37
2024/01/07 00:50:28;;;;;;;141.13;7.03;;;;;;;21.00;48.91;99223.75;7296462;19;130068;-40
2024/01/07 00:52:54;;;;;;;166.90;7.40;;;;;;;20.97;48.90;99224.03;7296304;19;129210;-38
2024/01/07 00:55:19;;;;;;;260.20;11.73;;;;;;;21.01;49.77;99222.75;7297091;19;132252;-39
2024/01/07 00:57:44;;;;;;;235.15;10.02;;;;;;;20.96;49.07;99224.16;7297736;19;132362;-39
2024/01/07 01:00:10;;;;;;;181.65;7.63;;;;;;;21.00;49.53;99228.13;7296198;19;131428;-38
2024/01/07 01:02:37;;;;;;;122.10;5.57;;;;;;;20.99;49.30;99232.53;7297532;19;132084;-38
2024/01/07 01:05:03;;;;;;;193.07;8.25;;;;;;;20.99;49.39;99235.16;7296775;19;129299;-36
2024/01/07 01:07:28;;;;;;;204.37;8.97;;;;;;;20.84;49.29;99213.03;7297109;19;131620;-39
2024/01/07 01:09:53;;;;;;;188.07;8.30;;;;;;;21.00;49.26;99241.22;7297066;19;132443;-39
2024/01/07 01:12:18;;;;;;;240.52;11.10;;;;;;;20.96;49.68;99235.41;7296412;19;131281;-41
2024/01/07 01:14:44;;;;;;;241.32;10.02;;;;;;;20.97;48.96;99244.09;7296565;19;131350;-35
2024/01/07 01:17:09;;;;;;;154.13;7.33;;;;;;;20.99;48.87;99245.59;7296458;19;130273;-36
2024/01/07 01:19:34;;;;;;;132.05;6.22;;;;;;;21.02;49.31;99247.97;7295170;19;129280;-40
2024/01/07 01:22:00;;;;;;;206.57;8.82;;;;;;;21.02;49.34;99250.56;7294869;19;129195;-41
2024/01/07 01:24:25;;;;;;;279.05;11.85;;;;;;;21.06;48.61;99251.06;7294212;19;130322;-41
2024/01/07 01:26:50;;;;;;;140.97;6.40;;;;;;;21.06;49.38;99257.13;7294303;19;131508;-37
2024/01/07 01:29:16;;;;;;;217.23;9.23;;;;;;;21.01;48.93;99254.13;7295314;19;133068;-38
2024/01/07 01:31:41;;;;;;;217.13;9.13;;;;;;;21.02;49.38;99250.56;7294130;19;132332;-40
2024/01/07 01:34:06;;;;;;;284.70;12.10;;;;;;;21.02;49.29;99253.19;7294568;19;129626;-37
2024/01/07 01:36:32;;;;;;;150.80;7.23;;;;;;;20.93;48.88;99254.00;7292684;19;129745;-38
2024/01/07 01:38:57;;;;;;;164.45;7.15;;;;;;;20.85;49.28;99233.00;7293202;19;130383;-35
2024/01/07 01:41:23;;;;;;;254.95;10.93;;;;;;;21.02;48.90;99263.63;7293652;19;131137;-36
2024/01/07 01:43:48;;;;;;;237.60;9.95;;;;;;;20.89;49.75;99247.41;7293065;19;131128;-39
2024/01/07 01:46:14;;;;;;;193.68;8.20;;;;;;;20.99;49.76;99265.72;7294302;19;130151;-36
2024/01/07 01:48:41;;;;;;;137.33;6.27;;;;;;;21.01;49.30;99264.59;7295276;19;131231;-39
2024/01/07 01:51:07;;;;;;;212.35;8.77;;;;;;;21.01;49.24;99259.34;7295321;19;130795;-36
2024/01/07 01:53:33;;;;;;;269.37;11.43;;;;;;;21.07;49.15;99264.03;7294857;19;129994;-38
2024/01/07 01:56:01;;;;;;;135.52;6.05;;;;;;;21.01;49.27;99268.97;7291751;19;130204;-36
2024/01/07 01:58:28;;;;;;;220.05;9.68;;;;;;;20.96;48.94;99266.78;7294147;19;130453;-40
2024/01/07 02:00:54;;;;;;;230.77;9.77;;;;;;;20.94;48.87;99268.69;7292101;19;129665;-38
2024/01/07 02:03:20;;;;;;;215.07;8.88;;;;;;;20.99;49.52;99271.75;7294918;19;129447;-39
2024/01/07 02:05:45;;;;;;;222.55;9.00;;;;;;;21.00;48.91;99278.63;7292975;19;130972;-39
2024/01/07 02:08:11;;;;;;;183.53;8.20;;;;;;;20.98;49.07;99275.31;7294050;19;130547;-39
2024/01/07 02:10:37;;;;;;;222.82;9.13;;;;;;;20.99;49.10;99276.16;7294341;19;129692;-33
2024/01/07 02:13:03;;;;;;;204.93;8.37;;;;;;;21.00;49.11;99285.63;7294307;19;130102;-37
2024/01/07 02:15:29;;;;;;;222.70;9.10;;;;;;;21.00;49.52;99286.47;7294088;19;130799;-40
2024/01/07 02:17:55;;;;;;;165.60;7.22;;;;;;;21.02;49.21;99287.16;7292817;19;132494;-39
2024/01/07 02:20:20;;;;;;;258.85;10.73;;;;;;;21.00;48.77;99291.69;7292766;19;130085;-38
2024/01/07 02:22:45;;;;;;;210.90;8.77;;;;;;;21.01;49.83;99293.34;7293900;19;131182;-40
2024/01/07 02:25:11;;;;;;;202.80;8.73;;;;;;;20.99;48.74;99291.84;7293348;19;129730;-41
2024/01/07 02:27:36;;;;;;;202.73;8.52;;;;;;;21.00;49.23;99293.47;7293248;19;129695;-37
2024/01/07 02:30:01;;;;;;;190.52;7.90;;;;;;;21.03;49.57;99304.47;7291766;19;129651;-34
2024/01/07 02:32:27;;;;;;;175.87;7.60;;;;;;;21.01;49.40;99301.16;7293900;19;130626;-37
2024/01/07 02:34:52;;;;;;;217.45;8.85;;;;;;;20.98;49.27;99301.47;7294376;19;131454;-38
2024/01/07 02:37:18;;;;;;;231.77;9.60;;;;;;;21.01;49.52;99295.94;7292985;19;129184;-41
2024/01/07 02:39:44;;;;;;;194.65;7.53;;;;;;;20.99;49.68;99303.09;7291840;19;129608;-42
2024/01/07 02:42:10;;;;;;;168.07;7.32;;;;;;;20.95;49.61;99296.50;7292227;19;130878;-38
2024/01/07 02:44:35;;;;;;;191.87;7.83;;;;;;;20.88;49.84;99271.91;7292674;19;131879;-41
2024/01/07 02:47:00;;;;;;;205.15;8.07;;;;;;;21.01;49.75;99306.41;7285833;19;130995;-38
2024/01/07 02:49:26;;;;;;;225.77;9.38;;;;;;;20.98;48.96;99317.16;7290498;19;129725;-39
2024/01/07 02:51:51;;;;;;;203.33;8.80;;;;;;;20.98;49.59;99309.31;7290978;19;129401;-37
2024/01/07 02:54:17;;;;;;;207.65;8.73;;;;;;;20.93;49.41;99303.66;7289880;19;131403;-38
2024/01/07 02:56:42;;;;;;;294.60;11.98;;;;;;;20.95;49.28;99313.97;7290527;19;130042;-40
2024/01/07 02:59:07;;;;;;;167.15;6.82;;;;;;;20.99;49.75;99318.78;7292635;19;129799;-39
2024/01/07 03:01:39;;;;;;;226.13;9.57;;;;;;;20.97;49.35;99310.28;7292017;19;129669;-38
2024/01/07 03:04:05;;;;;;;242.75;10.20;;;;;;;20.96;49.03;99321.66;7288545;19;130587;-36
2024/01/07 03:06:30;;;;;;;272.38;11.10;;;;;;;20.98;49.02;99321.53;7289645;19;131817;-40
2024/01/07 03:08:56;;;;;;;257.02;10.48;;;;;;;20.93;49.25;99316.72;7293930;19;131487;-40
2024/01/07 03:11:21;;;;;;;188.18;7.95;;;;;;;20.96;49.45;99326.06;7293972;19;131222;-39
2024/01/07 03:13:46;;;;;;;187.82;7.63;;;;;;;20.97;48.98;99315.50;7290260;19;130186;-36
2024/01/07 03:16:25;;;;;;;203.65;8.35;;;;;;;20.81;50.10;99294.31;7289948;19;129630;-36
2024/01/07 03:18:51;;;;;;;216.82;8.63;;;;;;;20.98;49.42;99317.16;7291403;19;129417;-39
2024/01/07 03:21:21;;;;;;;136.20;6.20;;;;;;;21.01;50.00;99324.69;7290089;19;129113;-40
2024/01/07 03:23:47;;;;;;;187.30;7.78;;;;;;;20.79;49.34;99296.28;7291122;19;129461;-41
2024/01/07 03:26:13;;;;;;;175.43;7.32;;;;;;;20.95;48.91;99321.78;7285575;19;130311;-38
2024/01/07 03:28:39;;;;;;;271.63;11.13;;;;;;;21.00;48.81;99327.44;7292969;19;129328;-40
2024/01/07 03:31:12;;;;;;;213.13;8.48;;;;;;;20.94;49.76;99326.19;7293827;19;129530;-41
2024/01/07 03:33:39;;;;;;;205.95;9.05;;;;;;;20.84;49.48;99309.72;7291070;19;130886;-37
2024/01/07 03:36:12;;;;;;;114.20;4.85;;;;;;;20.97;49.56;99323.34;7289496;19;129123;-39
2024/01/07 03:38:38;;;;;;;279.08;11.35;;;;;;;21.00;48.90;99325.66;7291531;19;133111;-37
2024/01/07 03:41:04;;;;;;;220.70;9.10;;;;;;;21.01;49.25;99335.16;7289791;19;129756;-40
2024/01/07 03:43:29;;;;;;;170.32;7.20;;;;;;;21.01;48.77;99327.31;7289968;19;130983;-41
2024/01/07 03:45:55;;;;;;;178.37;7.53;;;;;;;21.02;49.63;99328.97;7288407;19;129821;-36
2024/01/07 03:48:21;;;;;;;200.98;8.32;;;;;;;20.96;49.50;99329.50;7289044;19;129817;-37
2024/01/07 03:50:46;;;;;;;225.88;9.25;;;;;;;20.97;49.19;99328.56;7292109;19;132860;-39
2024/01/07 03:53:12;;;;;;;160.95;6.68;;;;;;;20.94;49.23;99334.03;7290007;19;129376;-38
2024/01/07 03:55:37;;;;;;;144.73;6.15;;;;;;;20.94;48.69;99335.84;7290062;19;131111;-41
2024/01/07 03:58:03;;;;;;;264.00;10.70;;;;;;;20.97;49.69;99340.78;7291628;19;132594;-39
2024/01/07 04:00:28;;;;;;;203.57;8.60;;;;;;;20.97;49.61;99341.63;7291675;19;130070;-35
2024/01/07 04:02:53;;;;;;;189.07;7.60;;;;;;;20.97;48.88;99344.25;7297913;19;130199;-40
2024/01/07 04:05:19;;;;;;;181.10;7.47;;;;;;;20.97;49.25;99352.09;7297968;19;131244;-40
2024/01/07 04:07:44;;;;;;;232.18;9.25;;;;;;;20.99;48.75;99357.97;7299025;19;130934;-39
2024/01/07 04:10:10;;;;;;;202.07;8.25;;;;;;;20.96;48.97;99358.22;7296999;19;130159;-39
2024/01/07 04:12:36;;;;;;;216.30;9.33;;;;;;;20.94;49.36;99357.53;7296937;19;130308;-38
2024/01/07 04:15:01;;;;;;;213.43;8.82;;;;;;;20.93;49.64;99350.69;7296973;19;131553;-41
2024/01/07 04:17:27;;;;;;;210.27;8.70;;;;;;;20.93;48.90;99355.91;7297809;19;128853;-38
2024/01/07 04:19:52;;;;;;;235.27;9.63;;;;;;;20.98;49.36;99358.97;7297028;19;131390;-36
2024/01/07 04:22:17;;;;;;;257.70;11.15;;;;;;;20.91;49.50;99362.25;7289332;19;130441;-38
2024/01/07 04:24:43;;;;;;;215.65;8.88;;;;;;;20.96;48.71;99360.84;7296109;19;130381;-39
2024/01/07 04:27:08;;;;;;;166.05;6.78;;;;;;;20.92;48.84;99358.66;7295098;19;131029;-41
2024/01/07 04:29:34;;;;;;;182.67;8.03;;;;;;;20.94;49.23;99360.16;7298343;19;130714;-41
2024/01/07 04:31:59;;;;;;;270.67;10.48;;;;;;;20.98;48.99;99363.34;7296379;19;130003;-39
2024/01/07 04:34:25;;;;;;;190.05;7.88;;;;;;;20.96;49.29;99366.06;7295785;19;129181;-37
2024/01/07 04:36:50;;;;;;;114.22;5.13;;;;;;;20.95;49.07;99361.00;7295782;19;129164;-38
2024/01/07 04:39:16;;;;;;;245.33;10.17;;;;;;;20.97;48.51;99373.00;7296503;19;130688;-40
2024/01/07 04:41:41;;;;;;;104.85;4.93;;;;;;;20.96;49.50;99380.94;7293486;19;129694;-37
2024/01/07 04:44:07;;;;;;;298.17;12.02;;;;;;;20.92;49.23;99380.41;7293838;19;130205;-36
2024/01/07 04:46:38;;;;;;;191.30;7.78;;;;;;;20.95;49.74;99380.13;7296170;19;130866;-40
2024/01/07 04:49:05;;;;;;;218.32;9.25;;;;;;;20.94;48.96;99382.88;7296067;19;129451;-38
2024/01/07 04:51:31;;;;;;;223.73;8.98;;;;;;;20.94;49.39;99382.88;7296909;19;132471;-39
2024/01/07 04:53:56;;;;;;;266.88;10.50;;;;;;;20.97;49.34;99388.69;7296020;19;130641;-37
2024/01/07 04:56:21;;;;;;;182.50;7.68;;;;;;;20.95;49.57;99401.03;7294154;19;129562;-38
2024/01/07 04:58:47;;;;;;;225.85;9.20;;;;;;;20.91;49.98;99399.66;7296745;19;129215;-41
2024/01/07 05:01:12;;;;;;;194.32;8.23;;;;;;;20.82;49.12;99390.03;7295385;19;132898;-40
2024/01/07 05:03:37;;;;;;;270.60;11.23;;;;;;;20.83;50.01;99404.75;7295230;19;131527;-39
2024/01/07 05:06:04;;;;;;;208.57;8.50;;;;;;;20.77;49.83;99401.88;7295687;19;129147;-38
2024/01/07 05:08:29;;;;;;;254.97;10.00;;;;;;;20.71;51.10;99404.06;7294447;19;130391;-40
2024/01/07 05:10:55;;;;;;;186.53;7.57;;;;;;;20.66;50.53;99406.28;7296341;19;130129;-40
2024/01/07 05:13:20;;;;;;;217.50;9.18;;;;;;;20.45;51.44;99389.09;7293363;19;130133;-34
2024/01/07 05:15:46;;;;;;;109.70;4.83;;;;;;;20.57;50.86;99408.88;7295658;19;130073;-39
2024/01/07 05:18:12;;;;;;;224.40;9.10;;;;;;;20.55;51.65;99406.41;7294535;19;130153;-41
2024/01/07 05:20:37;;;;;;;150.20;6.47;;;;;;;20.53;51.19;99407.50;7294400;19;130149;-40
2024/01/07 05:23:03;;;;;;;237.52;9.52;;;;;;;20.52;50.97;99408.47;7294198;19;130819;-39
2024/01/07 05:25:29;;;;;;;232.10;9.40;;;;;;;20.54;50.58;99415.19;7294660;19;130434;-40
2024/01/07 05:27:54;;;;;;;193.00;7.88;;;;;;;20.43;51.20;99393.63;7297158;19;132339;-38
2024/01/07 05:30:19;;;;;;;206.00;8.43;;;;;;;20.60;50.84;99408.63;7294804;19;131708;-38
2024/01/07 05:32:45;;;;;;;186.30;7.50;;;;;;;20.41;51.29;99395.56;7294132;19;130305;-42
2024/01/07 05:35:10;;;;;;;141.43;5.72;;;;;;;20.57;51.20;99419.34;7295095;19;129540;-41
2024/01/07 05:37:36;;;;;;;245.35;10.07;;;;;;;20.59;51.41;99426.06;7294816;19;129430;-41
2024/01/07 05:40:01;;;;;;;283.87;11.17;;;;;;;20.54;51.09;99424.84;7294085;19;130200;-39
2024/01/07 05:42:26;;;;;;;256.33;11.18;;;;;;;20.57;51.48;99432.41;7295290;19;132569;-40
2024/01/07 05:44:52;;;;;;;153.77;6.72;;;;;;;20.57;50.74;99430.63;7294583;19;129896;-44
2024/01/07 05:47:18;;;;;;;100.30;4.28;;;;;;;20.70;50.04;99441.63;7295625;19;129310;-43
2024/01/07 05:49:43;;;;;;;295.50;11.82;;;;;;;20.80;49.42;99432.94;7293869;19;131158;-42
2024/01/07 05:52:08;;;;;;;232.27;9.32;;;;;;;20.87;49.56;99434.88;7293648;19;131016;-38
2024/01/07 05:54:34;;;;;;;200.40;7.97;;;;;;;20.91;49.19;99441.44;7291269;19;129216;-39
2024/01/07 05:56:59;;;;;;;182.48;7.25;;;;;;;20.93;49.04;99442.16;7291813;19;129019;-41
2024/01/07 05:59:24;;;;;;;277.70;10.98;;;;;;;20.89;48.94;99438.16;7291226;19;132388;-40
2024/01/07 06:01:50;;;;;;;238.03;9.57;;;;;;;20.97;48.93;99446.19;7292505;19;131345;-39
2024/01/07 06:04:15;;;;;;;211.02;8.48;;;;;;;20.95;48.89;99447.22;7293117;19;131331;-40
2024/01/07 06:06:40;;;;;;;281.15;11.35;;;;;;;20.88;49.42;99428.66;7289805;19;129691;-39
2024/01/07 06:09:06;;;;;;;203.15;8.48;;;;;;;21.02;49.32;99459.66;7294200;19;130506;-38
2024/01/07 06:11:32;;;;;;;200.10;8.03;;;;;;;20.98;48.97;99462.66;7294542;19;130931;-36
2024/01/07 06:13:57;;;;;;;161.90;6.50;;;;;;;20.97;48.75;99461.00;7293006;19;129835;-40
2024/01/07 06:16:23;;;;;;;201.30;8.03;;;;;;;21.05;49.84;99466.38;7291557;19;129269;-38
2024/01/07 06:18:48;;;;;;;228.48;9.00;;;;;;;20.98;49.12;99466.09;7295033;19;131350;-37
2024/01/07 06:21:14;;;;;;;187.48;7.45;;;;;;;20.99;49.44;99467.75;7292154;19;130691;-41
2024/01/07 06:23:39;;;;;;;110.63;4.63;;;;;;;20.95;49.40;99473.38;7293278;19;129687;-42
2024/01/07 06:26:05;;;;;;;249.70;9.53;;;;;;;20.96;49.17;99475.84;7291716;19;129762;-38
2024/01/07 06:28:30;;;;;;;202.75;8.30;;;;;;;20.94;49.45;99480.38;7295287;19;130686;-38
2024/01/07 06:30:55;;;;;;;198.45;8.10;;;;;;;20.95;49.22;99479.44;7293090;19;130669;-45
2024/01/07 06:33:20;;;;;;;135.27;5.70;;;;;;;20.99;49.42;99480.00;7293631;19;129615;-43
2024/01/07 06:35:46;;;;;;;239.80;9.30;;;;;;;20.98;49.39;99484.41;7290494;19;129063;-41
2024/01/07 06:38:11;;;;;;;219.30;8.80;;;;;;;20.98;49.19;99489.63;7291430;19;130220;-39
2024/01/07 06:40:37;;;;;;;214.50;8.95;;;;;;;20.99;49.34;99491.28;7292669;19;130320;-39
2024/01/07 06:43:02;;;;;;;195.53;7.70;;;;;;;20.98;49.83;99502.69;7279308;19;130508;-43
2024/01/07 06:45:28;;;;;;;241.75;9.57;;;;;;;21.00;49.57;99505.16;7286539;19;129954;-43
2024/01/07 06:47:53;;;;;;;233.25;9.35;;;;;;;21.01;48.92;99501.59;7287721;19;130019;-40
2024/01/07 06:50:20;;;;;;;217.13;8.50;;;;;;;20.99;49.04;99506.94;7288752;19;131180;-40
2024/01/07 06:52:46;;;;;;;274.42;10.52;;;;;;;20.99;49.27;99514.78;7289150;19;129490;-42
2024/01/07 06:55:14;;;;;;;242.45;9.63;;;;;;;20.99;49.33;99512.19;7290116;19;131316;-37
2024/01/07 06:57:39;;;;;;;213.40;8.75;;;;;;;21.00;49.14;99519.06;7291902;19;130491;-41
2024/01/07 07:00:05;;;;;;;201.10;7.95;;;;;;;20.97;49.27;99529.81;7289136;19;130535;-40
2024/01/07 07:02:31;;;;;;;260.90;10.43;;;;;;;20.95;49.14;99521.25;7289920;19;129917;-39
2024/01/07 07:04:56;;;;;;;243.27;9.15;;;;;;;20.96;49.28;99528.09;7288913;19;129153;-39
2024/01/07 07:07:22;;;;;;;227.38;9.05;;;;;;;20.94;48.94;99524.81;7288336;19;130943;-41
2024/01/07 07:09:47;;;;;;;212.93;8.70;;;;;;;20.84;49.12;99518.75;7289254;19;131201;-41
2024/01/07 07:12:13;;;;;;;256.45;10.05;;;;;;;20.98;48.92;99535.84;7287697;19;130262;-43
2024/01/07 07:14:38;;;;;;;202.75;8.32;;;;;;;20.97;49.57;99537.66;7286845;19;128906;-39
2024/01/07 07:17:03;;;;;;;214.05;8.38;;;;;;;20.97;49.40;99545.50;7287998;19;129831;-39
2024/01/07 07:19:29;;;;;;;200.18;8.15;;;;;;;20.95;49.53;99547.38;7290380;19;132663;-43
2024/01/07 07:21:54;;;;;;;286.25;10.98;;;;;;;20.83;49.52;99524.94;7285504;19;130088;-43
2024/01/07 07:24:20;;;;;;;230.13;9.02;;;;;;;20.95;49.37;99551.75;7286459;19;129548;-38
2024/01/07 07:26:45;;;;;;;208.77;8.32;;;;;;;20.81;49.42;99529.47;7285875;19;130111;-39
2024/01/07 07:29:10;;;;;;;251.00;10.07;;;;;;;20.93;48.86;99557.13;7285834;19;132580;-38
2024/01/07 07:31:36;;;;;;;265.85;10.52;;;;;;;20.90;49.39;99549.56;7285559;19;129929;-44
2024/01/07 07:34:04;;;;;;;136.93;5.35;;;;;;;20.94;49.02;99558.78;7286593;19;130666;-42
2024/01/07 07:36:29;;;;;;;170.90;7.00;;;;;;;20.85;49.59;99551.75;7288995;19;131723;-38
2024/01/07 07:38:55;;;;;;;212.65;8.57;;;;;;;20.95;48.99;99568.28;7294147;19;130307;-43
2024/01/07 07:41:20;;;;;;;183.90;7.43;;;;;;;20.83;49.40;99548.47;7292471;19;130895;-38
2024/01/07 07:43:45;;;;;;;215.43;8.48;;;;;;;20.94;49.16;99577.06;7294862;19;129084;-38
2024/01/07 07:46:11;;;;;;;227.32;9.38;;;;;;;20.94;48.92;99576.25;7291535;19;131350;-38
2024/01/07 07:48:37;;;;;;;255.80;10.27;;;;;;;20.94;49.53;99584.91;7293836;19;131379;-38
2024/01/07 07:51:03;;;;;;;232.75;9.25;;;;;;;20.83;49.21;99564.13;7294841;19;132376;-38
2024/01/07 07:53:28;;;;;;;216.38;8.93;;;;;;;20.96;48.82;99595.25;7293710;19;129403;-38
2024/01/07 07:55:53;;;;;;;259.08;10.20;;;;;;;20.99;48.96;99600.25;7291535;19;130233;-38
2024/01/07 07:58:19;;;;;;;274.70;10.93;;;;;;;20.88;49.35;99582.84;7289532;19;131000;-38
2024/01/07 08:00:45;;;;;;;238.83;9.17;;;;;;;20.96;49.74;99596.06;7291376;19;130739;-38
2024/01/07 08:03:10;;;;;;;195.95;7.55;;;;;;;20.93;48.72;99596.34;7290236;19;131130;-38
2024/01/07 08:05:36;;;;;;;347.02;14.48;;;;;;;20.94;49.46;99603.19;7291873;19;130213;-38
2024/01/07 08:08:01;;;;;;;272.88;10.80;;;;;;;20.97;49.58;99603.00;7294345;19;129894;-38
2024/01/07 08:10:28;;;;;;;286.37;11.60;;;;;;;20.93;49.17;99609.41;7291009;19;130155;-38
2024/01/07 08:12:54;;;;;;;;;;;;;;;20.93;50.05;99612.00;7288648;19;130247;-38
2024/01/07 08:15:19;;;;;;;232.77;9.18;;;;;;;20.93;48.70;99609.41;7288246;19;131737;-38
2024/01/07 08:17:45;;;;;;;306.98;12.13;;;;;;;20.94;48.90;99623.31;7286755;19;131061;-38
2024/01/07 08:20:10;;;;;;;195.88;8.15;;;;;;;20.96;49.23;99622.19;7288700;19;131071;-38
2024/01/07 08:22:36;;;;;;;173.93;7.03;;;;;;;20.94;48.48;99624.09;7288624;19;132541;-39
2024/01/07 08:25:01;;;;;;;239.80;9.88;;;;;;;20.93;48.69;99622.47;7290368;19;130150;-38
2024/01/07 08:27:27;;;;;;;301.75;11.65;;;;;;;20.94;48.84;99629.34;7289372;19;130727;-38
2024/01/07 08:29:52;;;;;;;206.82;8.35;;;;;;;20.95;48.73;99625.78;7290135;19;130653;-38
2024/01/07 08:32:19;;;;;;;165.13;6.95;;;;;;;20.92;48.85;99646.13;7290365;19;130604;-38
2024/01/07 08:34:44;;;;;;;271.85;10.70;;;;;;;20.95;48.66;99638.00;7288697;19;130227;-38
2024/01/07 08:37:10;;;;;;;263.63;10.05;;;;;;;20.95;48.88;99633.63;7288611;19;130722;-38
2024/01/07 08:39:36;;;;;;;257.50;10.27;;;;;;;20.91;49.05;99634.84;7289699;19;129690;-37
2024/01/07 08:42:01;;;;;;;236.27;9.40;;;;;;;20.93;48.57;99648.59;7277055;19;130796;-38
2024/01/07 08:44:26;;;;;;;292.00;11.65;;;;;;;20.95;48.98;99645.84;7285357;19;131078;-39
2024/01/07 08:46:52;;;;;;;352.13;14.45;;;;;;;20.96;49.00;99637.88;7281716;19;131126;-39
2024/01/07 08:49:17;;;;;;;217.52;8.70;;;;;;;20.94;48.79;99647.63;7285130;19;130640;-38
2024/01/07 08:51:43;;;;;;;318.67;13.00;;;;;;;20.99;49.95;99648.09;7282440;19;130159;-38
2024/01/07 08:54:08;;;;;;;259.17;9.77;;;;;;;20.96;48.62;99647.53;7283839;19;131672;-38
2024/01/07 08:56:34;;;;;;;239.85;9.63;;;;;;;20.80;48.90;99627.13;7285403;19;130725;-38
2024/01/07 08:58:59;;;;;;;207.05;8.57;;;;;;;20.95;49.02;99646.69;7287884;19;129141;-38
2024/01/07 09:01:25;;;;;;;229.07;8.95;;;;;;;20.95;48.70;99654.53;7289374;19;132963;-39
2024/01/07 09:03:50;;;;;;;312.90;12.13;;;;;;;20.95;49.11;99648.47;7286552;19;132417;-38
2024/01/07 09:06:15;;;;;;;211.20;8.40;;;;;;;20.97;48.94;99657.00;7286944;19;130446;-38
2024/01/07 09:08:42;;;;;;;203.15;7.95;;;;;;;20.94;48.81;99660.69;7287313;19;130777;-38
2024/01/07 09:11:10;;;;;;;181.93;7.10;;;;;;;20.95;48.47;99657.13;7285543;19;130373;-38
2024/01/07 09:13:36;;;;;;;259.73;9.60;;;;;;;20.99;48.84;99666.38;7290110;19;130409;-38
2024/01/07 09:16:01;;;;;;;244.30;9.68;;;;;;;20.93;49.04;99661.66;7289592;19;131038;-39
2024/01/07 09:18:27;;;;;;;194.60;7.43;;;;;;;20.97;49.22;99672.69;7291731;19;129751;-38
2024/01/07 09:20:52;;;;;;;221.38;8.80;;;;;;;20.98;48.84;99662.13;7292792;19;133043;-38
2024/01/07 09:23:18;;;;;;;299.98;11.80;;;;;;;20.97;49.10;99676.16;7292483;19;130958;-38
2024/01/07 09:25:43;;;;;;;127.63;5.10;;;;;;;20.96;48.77;99674.47;7293586;19;130731;-37
2024/01/07 09:28:08;;;;;;;211.38;8.43;;;;;;;20.82;48.82;99653.09;7292939;19;130710;-38
2024/01/07 09:30:34;;;;;;;191.30;7.50;;;;;;;20.97;49.00;99685.75;7292608;19;129295;-38
2024/01/07 09:32:59;;;;;;;270.08;10.68;;;;;;;20.97;49.05;99685.75;7290902;19;131052;-38
2024/01/07 09:35:25;;;;;;;385.43;15.43;;;;;;;20.93;48.72;99677.34;7283592;19;133125;-38
2024/01/07 09:37:50;;;;;;;407.50;16.63;;;;;;;20.83;48.40;99665.19;7280139;19;131079;-38
2024/01/07 09:40:19;;;;;;;346.48;13.85;;;;;;;20.93;48.78;99687.81;7280740;19;131389;-38
2024/01/07 09:42:45;;;;;;;289.67;11.48;;;;;;;20.92;48.96;99688.78;7281121;19;131009;-38
2024/01/07 09:45:13;;;;;;;338.63;14.02;;;;;;;20.90;49.10;99690.69;7284065;19;131197;-38
2024/01/07 09:47:43;;;;;;;205.63;8.18;;;;;;;20.93;48.64;99687.81;7283995;19;130390;-38
2024/01/07 09:50:10;;;;;;;308.38;12.05;;;;;;;20.96;48.44;99684.91;7280754;19;133444;-39
2024/01/07 09:52:37;;;;;;;243.02;9.43;;;;;;;20.99;48.60;99684.69;7278192;19;133398;-38
2024/01/07 09:55:06;;;;;;;236.30;9.25;;;;;;;20.94;49.08;99691.25;7278108;19;130696;-38
2024/01/07 09:57:31;;;;;;;261.27;10.43;;;;;;;20.92;48.51;99699.22;7280444;19;130200;-39
2024/01/07 09:59:57;;;;;;;257.90;9.98;;;;;;;20.95;49.00;99693.72;7272789;19;132955;-39
2024/01/07 10:02:23;;;;;;;388.95;16.67;;;;;;;20.90;48.73;99685.47;7276423;19;131597;-39
2024/01/07 10:04:49;;;;;;;202.15;7.60;;;;;;;20.93;48.62;99693.03;7278872;19;131463;-38
2024/01/07 10:07:15;;;;;;;;;;;;;;;20.92;49.76;99704.44;7273979;19;132184;-43
2024/01/07 10:09:42;;;;;;;328.02;12.90;;;;;;;20.96;49.53;99705.81;7278455;19;130027;-39
2024/01/07 10:12:08;;;;;;;317.30;12.68;;;;;;;20.93;48.89;99708.72;7283800;19;130499;-43
2024/01/07 10:14:33;;;;;;;213.77;8.40;;;;;;;20.93;48.51;99706.09;7284323;19;130419;-43
2024/01/07 10:16:59;;;;;;;264.40;10.48;;;;;;;20.93;48.96;99703.47;7284325;19;130145;-38
2024/01/07 10:19:25;;;;;;;156.97;6.27;;;;;;;20.94;48.56;99712.16;7288531;19;130069;-40
2024/01/07 10:22:03;;;;;;;269.30;10.85;;;;;;;20.91;48.89;99712.44;7281537;19;130721;-43
2024/01/07 10:24:39;;;;;;;206.80;8.38;;;;;;;20.90;49.55;99710.75;7282815;19;130883;-37
2024/01/07 10:27:06;;;;;;;226.95;9.32;;;;;;;20.84;48.96;99691.19;7281804;19;130419;-39
2024/01/07 10:29:32;;;;;;;328.40;12.88;;;;;;;20.82;49.09;99687.91;7285149;19;130402;-40
2024/01/07 10:31:58;;;;;;;195.70;7.57;;;;;;;20.94;48.69;99712.97;7283232;19;131406;-43
2024/01/07 10:34:24;;;;;;;258.50;10.20;;;;;;;20.92;48.70;99720.13;7284116;19;130392;-42
2024/01/07 10:36:52;;;;;;;246.35;9.40;;;;;;;20.96;49.17;99718.91;7282968;19;131082;-39
2024/01/07 10:39:19;;;;;;;267.08;10.45;;;;;;;20.95;48.81;99716.41;7284409;19;129735;-39
2024/01/07 10:41:46;;;;;;;312.65;13.02;;;;;;;20.97;47.63;99728.44;7287537;19;131923;-39
2024/01/07 10:44:11;;;;;;;183.68;7.70;;;;;;;20.98;46.75;99724.84;7280626;19;130465;-42
2024/01/07 10:46:36;;;;;;;225.32;9.40;;;;;;;20.95;47.08;99719.88;7287647;19;130515;-40
2024/01/07 10:49:20;;;;;;;305.05;12.95;;;;;;;20.92;48.51;99722.75;7289183;19;130157;-39
2024/01/07 10:52:01;;;;;;;285.65;11.75;;;;;;;21.00;48.34;99716.88;7289339;19;130201;-40
2024/01/07 10:54:29;;;;;;;224.07;9.68;;;;;;;20.93;48.44;99716.53;7289980;19;130843;-41
2024/01/07 10:57:02;;;;;;;200.98;8.88;;;;;;;21.01;49.21;99718.53;7288594;19;130985;-39
2024/01/07 10:59:30;;;;;;;219.35;9.95;;;;;;;21.00;48.77;99722.94;7288833;19;129422;-42
2024/01/07 11:01:55;;;;;;;306.60;13.48;;;;;;;20.99;48.24;99726.50;7280874;19;130167;-40